createdAt,value
2022-09-01T00:01:52.071Z,9.30
2022-09-01T00:04:23.192Z,9.10
2022-09-01T00:06:51.536Z,9.27
2022-09-01T00:09:21.963Z,9.33
2022-09-01T00:11:54.152Z,9.00
2022-09-01T00:14:30.678Z,9.33
2022-09-01T00:17:03.316Z,9.70
2022-09-01T00:19:33.344Z,9.00
2022-09-01T00:22:02.554Z,9.20
2022-09-01T00:24:31.055Z,9.20
2022-09-01T00:26:59.831Z,9.07
2022-09-01T00:29:28.489Z,9.30
2022-09-01T00:31:56.838Z,9.23
2022-09-01T00:34:26.511Z,9.60
2022-09-01T00:36:55.326Z,9.50
2022-09-01T00:39:23.713Z,9.33
2022-09-01T00:41:52.320Z,9.40
2022-09-01T00:44:26.890Z,9.17
2022-09-01T00:46:58.638Z,9.20
2022-09-01T00:49:35.200Z,9.20
2022-09-01T00:52:15.018Z,9.23
2022-09-01T00:54:49.519Z,9.30
2022-09-01T00:57:18.255Z,9.30
2022-09-01T00:59:52.410Z,9.13
2022-09-01T01:02:21.844Z,9.30
2022-09-01T01:04:52.847Z,9.13
2022-09-01T01:07:23.617Z,9.30
2022-09-01T01:09:53.007Z,9.33
2022-09-01T01:12:22.108Z,9.30
2022-09-01T01:14:52.500Z,9.50
2022-09-01T01:17:23.547Z,9.40
2022-09-01T01:20:13.725Z,9.43
2022-09-01T01:23:05.731Z,9.40
2022-09-01T01:25:41.961Z,9.30
2022-09-01T01:28:15.791Z,9.20
2022-09-01T01:30:52.301Z,9.30
2022-09-01T01:33:23.771Z,9.50
2022-09-01T01:35:57.115Z,9.80
2022-09-01T01:38:28.028Z,9.40
2022-09-01T01:40:58.801Z,9.23
2022-09-01T01:43:29.037Z,9.37
2022-09-01T01:46:02.702Z,9.20
2022-09-01T01:48:41.667Z,9.73
2022-09-01T01:51:11.941Z,9.40
2022-09-01T01:53:43.585Z,15.93
2022-09-01T01:56:13.296Z,9.60
2022-09-01T01:58:41.686Z,9.47
2022-09-01T02:01:12.816Z,9.60
2022-09-01T02:03:41.998Z,9.63
2022-09-01T02:06:12.420Z,9.60
2022-09-01T02:08:42.309Z,10.00
2022-09-01T02:11:13.289Z,9.30
2022-09-01T02:13:41.671Z,9.57
2022-09-01T02:16:13.195Z,9.33
2022-09-01T02:18:48.190Z,9.30
2022-09-01T02:21:20.524Z,9.30
2022-09-01T02:24:01.425Z,9.57
2022-09-01T02:26:39.606Z,9.50
2022-09-01T02:29:18.059Z,9.53
2022-09-01T02:31:49.319Z,9.73
2022-09-01T02:34:19.469Z,9.90
2022-09-01T02:36:52.040Z,9.70
2022-09-01T02:39:29.980Z,9.53
2022-09-01T02:42:01.375Z,9.70
2022-09-01T02:44:31.198Z,9.53
2022-09-01T02:47:01.872Z,9.40
2022-09-01T02:49:31.486Z,9.63
2022-09-01T02:52:01.957Z,9.40
2022-09-01T02:54:33.746Z,9.73
2022-09-01T02:57:04.092Z,9.93
2022-09-01T02:59:34.919Z,9.90
2022-09-01T03:02:03.280Z,9.60
2022-09-01T03:04:35.196Z,9.90
2022-09-01T03:07:04.601Z,9.80
2022-09-01T03:09:35.194Z,9.60
2022-09-01T03:12:07.208Z,9.60
2022-09-01T03:14:36.428Z,9.70
2022-09-01T03:17:04.898Z,10.90
2022-09-01T03:19:41.987Z,10.87
2022-09-01T03:22:10.403Z,9.90
2022-09-01T03:24:39.200Z,10.07
2022-09-01T03:27:11.693Z,9.37
2022-09-01T03:29:40.099Z,9.60
2022-09-01T03:32:09.132Z,9.73
2022-09-01T03:34:37.522Z,10.40
2022-09-01T03:37:08.032Z,10.33
2022-09-01T03:39:36.756Z,9.90
2022-09-01T03:42:08.476Z,9.87
2022-09-01T03:44:40.409Z,10.53
2022-09-01T03:47:11.539Z,9.80
2022-09-01T03:49:40.544Z,10.17
2022-09-01T03:52:08.996Z,10.30
2022-09-01T03:54:37.881Z,9.87
2022-09-01T03:57:10.123Z,10.10
2022-09-01T03:59:43.397Z,11.13
2022-09-01T04:02:13.147Z,10.60
2022-09-01T04:04:41.726Z,10.13
2022-09-01T04:07:10.139Z,9.97
2022-09-01T04:09:45.925Z,10.10
2022-09-01T04:12:15.869Z,11.73
2022-09-01T04:14:48.542Z,10.17
2022-09-01T04:17:34.682Z,9.87
2022-09-01T04:20:08.853Z,10.23
2022-09-01T04:22:38.238Z,10.30
2022-09-01T04:25:09.038Z,10.20
2022-09-01T04:27:40.432Z,10.37
2022-09-01T04:30:12.365Z,10.30
2022-09-01T04:32:46.931Z,11.23
2022-09-01T04:35:17.287Z,10.27
2022-09-01T04:37:47.613Z,9.80
2022-09-01T04:40:17.768Z,11.03
2022-09-01T04:42:47.906Z,10.10
2022-09-01T04:45:21.237Z,10.37
2022-09-01T04:47:51.251Z,10.40
2022-09-01T04:50:22.205Z,10.37
2022-09-01T04:53:12.095Z,10.27
2022-09-01T04:55:44.437Z,10.33
2022-09-01T04:58:19.243Z,10.00
2022-09-01T05:01:18.992Z,10.17
2022-09-01T05:04:01.376Z,10.10
2022-09-01T05:06:43.073Z,9.80
2022-09-01T05:09:12.384Z,10.40
2022-09-01T05:11:48.707Z,10.60
2022-09-01T05:14:24.427Z,9.70
2022-09-01T05:16:58.747Z,10.13
2022-09-01T05:19:30.921Z,10.00
2022-09-01T05:22:01.556Z,10.10
2022-09-01T05:24:32.187Z,10.07
2022-09-01T05:27:05.811Z,10.10
2022-09-01T05:29:38.075Z,10.33
2022-09-01T05:32:11.283Z,10.43
2022-09-01T05:34:41.012Z,10.10
2022-09-01T05:37:13.188Z,10.20
2022-09-01T05:39:42.018Z,10.30
2022-09-01T05:42:11.395Z,10.50
2022-09-01T05:44:44.204Z,10.63
2022-09-01T05:47:20.921Z,10.00
2022-09-01T05:49:53.610Z,10.30
2022-09-01T05:52:26.518Z,10.70
2022-09-01T05:55:00.167Z,10.53
2022-09-01T05:57:34.559Z,10.00
2022-09-01T06:00:12.553Z,10.10
2022-09-01T06:02:45.448Z,10.97
2022-09-01T06:05:19.589Z,9.87
2022-09-01T06:07:49.419Z,10.27
2022-09-01T06:10:17.952Z,10.40
2022-09-01T06:12:48.838Z,9.70
2022-09-01T06:15:18.642Z,10.13
2022-09-01T06:17:52.633Z,9.97
2022-09-01T06:20:22.987Z,10.20
2022-09-01T06:22:52.604Z,10.20
2022-09-01T06:25:22.256Z,10.20
2022-09-01T06:27:52.486Z,10.33
2022-09-01T06:30:26.514Z,10.20
2022-09-01T06:33:09.289Z,10.03
2022-09-01T06:35:39.027Z,10.17
2022-09-01T06:38:08.648Z,10.00
2022-09-01T06:40:42.814Z,10.20
2022-09-01T06:43:16.216Z,10.60
2022-09-01T06:45:54.433Z,10.50
2022-09-01T06:48:26.202Z,10.43
2022-09-01T06:51:20.965Z,10.10
2022-09-01T06:53:57.109Z,9.87
2022-09-01T06:59:20.297Z,10.03
2022-09-01T07:01:52.948Z,9.97
2022-09-01T07:04:31.497Z,9.83
2022-09-01T07:10:18.598Z,10.40
2022-09-01T07:13:11.857Z,9.80
2022-09-01T07:18:35.528Z,9.53
2022-09-01T07:21:36.107Z,9.67
2022-09-01T07:24:10.507Z,9.80
2022-09-01T07:26:48.803Z,10.03
2022-09-01T07:29:21.831Z,9.87
2022-09-01T07:32:43.932Z,9.80
2022-09-01T07:34:41.788Z,9.37
2022-09-01T07:39:57.724Z,9.57
2022-09-01T07:42:31.770Z,9.77
2022-09-01T07:43:17.899Z,9.90
2022-09-01T07:51:50.171Z,10.47
2022-09-01T07:54:24.046Z,9.70
2022-09-01T07:56:55.644Z,9.50
2022-09-01T07:59:27.918Z,9.47
2022-09-01T08:02:18.394Z,9.60
2022-09-01T08:04:48.292Z,9.77
2022-09-01T08:07:19.031Z,9.50
2022-09-01T08:09:48.707Z,9.50
2022-09-01T08:12:17.592Z,9.20
2022-09-01T08:17:51.258Z,9.10
2022-09-01T08:20:20.746Z,9.20
2022-09-01T08:22:54.520Z,9.07
2022-09-01T08:25:27.245Z,9.17
2022-09-01T08:28:00.318Z,9.33
2022-09-01T08:30:30.757Z,8.80
2022-09-01T08:33:10.210Z,9.00
2022-09-01T08:35:40.759Z,9.67
2022-09-01T08:38:10.235Z,9.33
2022-09-01T08:40:42.629Z,8.93
2022-09-01T08:43:20.058Z,9.10
2022-09-01T08:45:53.652Z,9.17
2022-09-01T08:49:18.464Z,9.00
2022-09-01T08:51:25.290Z,9.17
2022-09-01T08:54:09.443Z,9.13
2022-09-01T08:56:39.657Z,8.93
2022-09-01T08:59:10.725Z,9.13
2022-09-01T09:02:27.180Z,8.90
2022-09-01T09:05:21.133Z,9.10
2022-09-01T09:08:09.747Z,8.97
2022-09-01T09:10:47.949Z,9.00
2022-09-01T09:13:27.131Z,9.10
2022-09-01T09:16:08.054Z,10.33
2022-09-01T09:18:54.669Z,8.97
2022-09-01T09:21:30.059Z,8.80
2022-09-01T09:24:09.984Z,9.20
2022-09-01T09:26:45.487Z,8.70
2022-09-01T09:29:15.182Z,8.67
2022-09-01T09:31:50.487Z,8.73
2022-09-01T09:34:32.681Z,8.70
2022-09-01T09:37:24.354Z,9.20
2022-09-01T09:40:21.520Z,8.50
2022-09-01T09:43:08.489Z,8.60
2022-09-01T09:45:42.306Z,8.80
2022-09-01T09:48:29.165Z,9.00
2022-09-01T09:50:57.740Z,10.57
2022-09-01T09:53:30.509Z,8.83
2022-09-01T09:56:06.833Z,8.60
2022-09-01T09:58:42.887Z,8.60
2022-09-01T10:01:17.406Z,8.60
2022-09-01T10:03:50.506Z,8.77
2022-09-01T10:06:35.566Z,8.80
2022-09-01T10:09:07.305Z,8.50
2022-09-01T10:11:41.711Z,8.60
2022-09-01T10:14:47.684Z,8.57
2022-09-01T10:17:15.894Z,8.50
2022-09-01T10:19:50.521Z,9.00
2022-09-01T10:22:18.921Z,9.07
2022-09-01T10:24:50.317Z,8.57
2022-09-01T10:27:24.639Z,9.10
2022-09-01T10:30:18.357Z,9.23
2022-09-01T10:32:55.708Z,9.00
2022-09-01T10:35:29.786Z,8.70
2022-09-01T10:38:00.353Z,9.10
2022-09-01T10:40:49.310Z,9.13
2022-09-01T10:43:36.257Z,8.53
2022-09-01T10:46:50.420Z,8.90
2022-09-01T10:50:01.454Z,8.40
2022-09-01T10:53:01.772Z,8.80
2022-09-01T10:55:37.456Z,8.90
2022-09-01T11:02:34.773Z,8.80
2022-09-01T11:05:18.046Z,8.80
2022-09-01T11:08:14.639Z,8.80
2022-09-01T11:10:51.515Z,8.60
2022-09-01T11:13:49.589Z,9.07
2022-09-01T11:16:52.763Z,8.90
2022-09-01T11:19:37.638Z,8.73
2022-09-01T11:22:28.019Z,8.43
2022-09-01T11:25:41.585Z,8.50
2022-09-01T11:28:47.048Z,8.80
2022-09-01T11:31:32.866Z,8.90
2022-09-01T11:34:17.744Z,8.80
2022-09-01T11:36:58.942Z,8.97
2022-09-01T11:39:43.766Z,8.83
2022-09-01T11:42:20.217Z,8.80
2022-09-01T11:44:54.232Z,8.90
2022-09-01T11:47:27.227Z,8.53
2022-09-01T11:49:58.670Z,8.80
2022-09-01T11:52:32.631Z,8.87
2022-09-01T11:55:01.552Z,8.83
2022-09-01T11:57:33.983Z,8.57
2022-09-01T12:00:07.023Z,8.60
2022-09-01T12:02:47.066Z,8.40
2022-09-01T12:05:30.508Z,8.70
2022-09-01T12:07:59.833Z,8.50
2022-09-01T12:10:34.603Z,8.57
2022-09-01T12:13:08.132Z,8.60
2022-09-01T12:16:00.448Z,8.33
2022-09-01T12:18:35.090Z,8.77
2022-09-01T12:21:07.872Z,8.90
2022-09-01T12:23:40.284Z,8.87
2022-09-01T12:26:11.683Z,8.80
2022-09-01T12:28:42.600Z,8.60
2022-09-01T12:31:16.850Z,8.80
2022-09-01T12:33:45.908Z,8.80
2022-09-01T12:36:24.858Z,9.37
2022-09-01T12:38:55.020Z,8.90
2022-09-01T12:41:35.128Z,8.60
2022-09-01T12:44:31.152Z,8.60
2022-09-01T12:47:02.897Z,8.37
2022-09-01T12:49:50.356Z,8.43
2022-09-01T12:52:26.592Z,8.30
2022-09-01T12:55:11.334Z,8.50
2022-09-01T12:57:45.327Z,8.47
2022-09-01T13:00:21.590Z,8.30
2022-09-01T13:02:53.320Z,9.03
2022-09-01T13:05:31.950Z,8.50
2022-09-01T13:08:05.060Z,8.40
2022-09-01T13:10:38.083Z,8.97
2022-09-01T13:13:08.200Z,8.83
2022-09-01T13:15:43.725Z,8.30
2022-09-01T13:18:12.219Z,8.60
2022-09-01T13:20:42.082Z,8.70
2022-09-01T13:23:12.675Z,8.30
2022-09-01T13:26:02.253Z,8.77
2022-09-01T13:28:30.546Z,8.70
2022-09-01T13:34:10.678Z,9.87
2022-09-01T13:36:43.548Z,8.80
2022-09-01T13:39:13.100Z,8.50
2022-09-01T13:41:42.327Z,8.70
2022-09-01T13:44:11.807Z,8.20
2022-09-01T13:50:06.543Z,8.80
2022-09-01T13:52:18.640Z,8.70
2022-09-01T13:54:47.898Z,8.50
2022-09-01T13:57:16.759Z,8.50
2022-09-01T13:59:45.775Z,8.50
2022-09-01T14:02:15.476Z,8.20
2022-09-01T14:04:44.933Z,9.10
2022-09-01T14:07:13.260Z,8.80
2022-09-01T14:09:41.632Z,9.17
2022-09-01T14:12:09.964Z,8.27
2022-09-01T14:17:28.026Z,8.40
2022-09-01T14:19:57.412Z,8.40
2022-09-01T14:22:25.697Z,8.23
2022-09-01T14:24:54.225Z,8.63
2022-09-01T14:27:22.623Z,8.30
2022-09-01T14:29:54.820Z,8.30
2022-09-01T14:32:27.077Z,8.50
2022-09-01T14:34:58.057Z,8.50
2022-09-01T14:37:26.424Z,8.67
2022-09-01T14:39:56.852Z,8.60
2022-09-01T14:42:28.774Z,8.67
2022-09-01T14:44:57.492Z,8.50
2022-09-01T14:47:26.057Z,8.50
2022-09-01T14:49:56.237Z,8.50
2022-09-01T14:52:24.807Z,8.10
2022-09-01T14:54:53.129Z,8.37
2022-09-01T14:57:31.393Z,8.60
2022-09-01T15:00:10.205Z,8.30
2022-09-01T15:02:39.141Z,8.50
2022-09-01T15:05:10.772Z,8.40
2022-09-01T15:07:40.389Z,8.53
2022-09-01T15:10:23.398Z,8.50
2022-09-01T15:12:54.568Z,8.40
2022-09-01T15:15:23.612Z,8.20
2022-09-01T15:17:51.904Z,8.47
2022-09-01T15:20:39.790Z,8.30
2022-09-01T15:23:08.678Z,8.50
2022-09-01T15:25:37.071Z,8.57
2022-09-01T15:28:06.112Z,8.50
2022-09-01T15:30:35.440Z,8.40
2022-09-01T15:33:06.473Z,8.57
2022-09-01T15:35:36.222Z,8.40
2022-09-01T15:38:07.012Z,8.40
2022-09-01T15:40:35.922Z,8.67
2022-09-01T15:43:06.380Z,8.40
2022-09-01T15:45:35.794Z,8.30
2022-09-01T15:48:04.856Z,8.30
2022-09-01T15:50:33.344Z,8.50
2022-09-01T15:53:08.389Z,8.70
2022-09-01T15:55:42.523Z,8.83
2022-09-01T15:58:12.907Z,8.37
2022-09-01T16:00:42.281Z,8.60
2022-09-01T16:03:11.504Z,8.80
2022-09-01T16:05:41.623Z,8.90
2022-09-01T16:08:11.618Z,8.90
2022-09-01T16:10:43.222Z,9.07
2022-09-01T16:13:13.115Z,9.60
2022-09-01T16:15:48.886Z,9.67
2022-09-01T16:18:29.999Z,9.73
2022-09-01T16:21:05.431Z,9.47
2022-09-01T16:23:44.040Z,9.47
2022-09-01T16:26:12.901Z,9.60
2022-09-01T16:28:46.658Z,9.03
2022-09-01T16:31:20.795Z,9.20
2022-09-01T16:33:54.293Z,9.10
2022-09-01T16:36:35.379Z,8.70
2022-09-01T16:39:14.869Z,8.70
2022-09-01T16:41:55.147Z,8.70
2022-09-01T16:44:33.092Z,8.70
2022-09-01T16:47:11.604Z,9.10
2022-09-01T16:49:50.177Z,8.80
2022-09-01T16:52:24.474Z,8.80
2022-09-01T16:55:15.632Z,8.47
2022-09-01T16:57:59.024Z,8.80
2022-09-01T17:00:39.736Z,8.57
2022-09-01T17:03:17.064Z,8.80
2022-09-01T17:05:55.831Z,8.50
2022-09-01T17:08:27.491Z,8.57
2022-09-01T17:11:04.705Z,8.50
2022-09-01T17:13:40.124Z,8.63
2022-09-01T17:16:13.364Z,8.90
2022-09-01T17:18:48.434Z,9.00
2022-09-01T17:21:22.918Z,8.67
2022-09-01T17:23:59.103Z,8.50
2022-09-01T17:26:31.056Z,8.80
2022-09-01T17:29:06.012Z,9.30
2022-09-01T17:31:54.424Z,8.90
2022-09-01T17:34:38.833Z,8.90
2022-09-01T17:37:20.175Z,8.70
2022-09-01T17:40:00.028Z,9.10
2022-09-01T17:42:37.823Z,8.70
2022-09-01T17:45:16.652Z,8.73
2022-09-01T17:48:01.136Z,8.80
2022-09-01T17:53:21.455Z,8.33
2022-09-01T17:56:01.718Z,8.37
2022-09-01T17:58:46.875Z,9.00
2022-09-01T18:01:25.903Z,8.40
2022-09-01T18:04:35.556Z,8.50
2022-09-01T18:07:13.383Z,8.70
2022-09-01T18:09:48.465Z,8.30
2022-09-01T18:12:22.130Z,8.77
2022-09-01T18:15:00.958Z,8.90
2022-09-01T18:17:33.708Z,8.70
2022-09-01T18:20:10.139Z,8.50
2022-09-01T18:22:46.140Z,8.80
2022-09-01T18:25:21.105Z,8.60
2022-09-01T18:27:49.629Z,9.07
2022-09-01T18:30:42.773Z,9.00
2022-09-01T18:33:29.130Z,8.90
2022-09-01T18:36:21.680Z,8.60
2022-09-01T18:38:54.845Z,8.90
2022-09-01T18:41:39.063Z,8.90
2022-09-01T18:44:26.647Z,8.50
2022-09-01T18:47:02.544Z,8.90
2022-09-01T18:49:45.021Z,9.07
2022-09-01T18:52:32.201Z,9.17
2022-09-01T18:55:08.812Z,9.30
2022-09-01T18:57:39.910Z,9.07
2022-09-01T19:00:18.066Z,9.73
2022-09-01T19:03:05.583Z,8.83
2022-09-01T19:06:01.789Z,9.23
2022-09-01T19:08:49.572Z,8.97
2022-09-01T19:11:31.669Z,8.40
2022-09-01T19:14:08.937Z,8.83
2022-09-01T19:16:55.062Z,9.13
2022-09-01T19:19:40.448Z,18.37
2022-09-01T19:22:11.285Z,17.40
2022-09-01T19:24:48.471Z,14.47
2022-09-01T19:27:22.891Z,13.30
2022-09-01T19:29:57.111Z,11.57
2022-09-01T19:32:30.263Z,16.13
2022-09-01T19:35:10.726Z,20.97
2022-09-01T19:37:39.808Z,24.50
2022-09-01T19:40:10.899Z,26.03
2022-09-01T19:42:45.541Z,20.93
2022-09-01T19:45:19.266Z,20.27
2022-09-01T19:47:53.846Z,19.40
2022-09-01T19:50:32.097Z,15.67
2022-09-01T19:53:04.893Z,14.97
2022-09-01T19:55:42.704Z,12.77
2022-09-01T19:58:17.940Z,11.20
2022-09-01T20:00:52.685Z,10.87
2022-09-01T20:03:27.386Z,10.50
2022-09-01T20:06:01.804Z,10.73
2022-09-01T20:08:39.682Z,11.03
2022-09-01T20:11:15.865Z,10.47
2022-09-01T20:14:27.247Z,10.10
2022-09-01T20:17:02.959Z,9.90
2022-09-01T20:19:40.759Z,9.93
2022-09-01T20:22:41.887Z,9.23
2022-09-01T20:25:14.705Z,9.10
2022-09-01T20:27:56.849Z,9.50
2022-09-01T20:30:28.622Z,9.10
2022-09-01T20:33:04.503Z,9.93
2022-09-01T20:35:40.849Z,9.20
2022-09-01T20:38:30.856Z,9.10
2022-09-01T20:41:06.057Z,9.27
2022-09-01T20:43:41.017Z,9.57
2022-09-01T20:46:09.719Z,9.30
2022-09-01T20:48:41.250Z,9.60
2022-09-01T20:51:16.182Z,9.23
2022-09-01T20:54:10.470Z,9.23
2022-09-01T20:56:48.320Z,9.20
2022-09-01T20:59:24.851Z,9.47
2022-09-01T21:02:00.849Z,9.20
2022-09-01T21:04:44.897Z,9.23
2022-09-01T21:07:18.302Z,9.20
2022-09-01T21:09:59.385Z,9.40
2022-09-01T21:12:37.093Z,9.23
2022-09-01T21:15:21.232Z,9.93
2022-09-01T21:18:05.746Z,9.37
2022-09-01T21:20:50.895Z,9.90
2022-09-01T21:23:21.014Z,9.57
2022-09-01T21:25:51.525Z,9.23
2022-09-01T21:28:21.669Z,9.77
2022-09-01T21:30:55.254Z,9.63
2022-09-01T21:33:25.292Z,9.20
2022-09-01T21:35:54.388Z,9.63
2022-09-01T21:38:22.947Z,9.23
2022-09-01T21:40:54.570Z,9.83
2022-09-01T21:43:25.751Z,9.50
2022-09-01T21:45:54.320Z,9.40
2022-09-01T21:48:22.972Z,10.03
2022-09-01T21:50:51.797Z,9.60
2022-09-01T21:53:20.690Z,9.20
2022-09-01T21:55:49.816Z,9.97
2022-09-01T21:58:20.010Z,9.70
2022-09-01T22:00:49.386Z,9.60
2022-09-01T22:03:18.169Z,10.27
2022-09-01T22:05:46.630Z,9.50
2022-09-01T22:08:17.787Z,9.57
2022-09-01T22:10:51.986Z,9.57
2022-09-01T22:13:24.621Z,9.53
2022-09-01T22:15:55.585Z,9.43
2022-09-01T22:18:24.465Z,9.50
2022-09-01T22:21:02.525Z,9.60
2022-09-01T22:23:50.953Z,9.80
2022-09-01T22:26:21.919Z,9.60
2022-09-01T22:28:52.178Z,9.33
2022-09-01T22:31:25.088Z,9.57
2022-09-01T22:33:54.269Z,9.60
2022-09-01T22:36:25.909Z,9.43
2022-09-01T22:38:54.935Z,9.90
2022-09-01T22:41:24.921Z,9.70
2022-09-01T22:43:54.925Z,9.40
2022-09-01T22:46:23.611Z,9.93
2022-09-01T22:48:52.127Z,9.70
2022-09-01T22:51:21.112Z,9.73
2022-09-01T22:53:50.080Z,9.60
2022-09-01T22:56:22.132Z,10.07
2022-09-01T22:58:54.220Z,9.80
2022-09-01T23:01:27.448Z,9.30
2022-09-01T23:03:59.521Z,9.87
2022-09-01T23:06:30.714Z,9.40
2022-09-01T23:09:01.257Z,9.90
2022-09-01T23:11:30.491Z,9.63
2022-09-01T23:13:59.151Z,9.97
2022-09-01T23:16:29.578Z,9.60
2022-09-01T23:18:58.087Z,10.00
2022-09-01T23:21:31.202Z,9.87
2022-09-01T23:24:00.843Z,9.80
2022-09-01T23:26:31.283Z,9.57
2022-09-01T23:29:01.097Z,9.60
2022-09-01T23:31:34.679Z,9.70
2022-09-01T23:34:04.110Z,9.70
2022-09-01T23:36:32.923Z,9.50
2022-09-01T23:39:02.876Z,9.70
2022-09-01T23:41:34.425Z,9.80
2022-09-01T23:44:05.420Z,9.97
2022-09-01T23:46:40.073Z,9.80
2022-09-01T23:49:09.942Z,9.90
2022-09-01T23:51:38.935Z,9.90
2022-09-01T23:54:07.914Z,9.70
2022-09-01T23:56:38.175Z,9.87
2022-09-01T23:59:07.442Z,9.83
